Time,TemperatureF,DewpointF,PressureIn,WindDirection,WindDirectionDegrees,WindSpeedMPH,WindSpeedGustMPH,Humidity,HourlyPrecipIn,Conditions,Clouds,dailyrainin,SoftwareType,DateUTC
2013-01-24 00:00:00,3.9,0.9,28.92,SSW,197,0.0,1.0,87,0.00,,,0.00,Wunderground v.1.15,2013-01-24 05:00:00,
2013-01-24 00:10:00,3.9,0.9,28.92,SSW,197,0.0,1.0,87,0.00,,,0.00,Wunderground v.1.15,2013-01-24 05:10:00,
2013-01-24 00:15:00,4.2,1.2,28.92,SSW,197,0.0,1.0,87,0.00,,,0.00,Wunderground v.1.15,2013-01-24 05:15:00,
2013-01-24 00:25:00,4.7,1.7,28.92,SSW,197,0.0,1.0,87,0.00,,,0.00,Wunderground v.1.15,2013-01-24 05:25:00,
2013-01-24 00:30:00,4.6,1.6,28.92,SSW,197,0.0,1.0,87,0.00,,,0.00,Wunderground v.1.15,2013-01-24 05:30:00,
2013-01-24 00:35:00,3.8,0.5,28.92,SSW,197,0.0,1.0,86,0.00,,,0.00,Wunderground v.1.15,2013-01-24 05:35:00,
2013-01-24 00:40:00,3.3,-0.2,28.92,SSW,197,0.0,1.0,85,0.00,,,0.00,Wunderground v.1.15,2013-01-24 05:40:00,
2013-01-24 00:45:00,2.9,-0.6,28.92,SSW,197,0.0,1.0,85,0.00,,,0.00,Wunderground v.1.15,2013-01-24 05:45:00,
2013-01-24 00:55:00,2.6,-0.6,28.92,SSW,197,0.0,1.0,86,0.00,,,0.00,Wunderground v.1.15,2013-01-24 05:55:00,
2013-01-24 01:00:00,2.2,-1.3,28.92,SSW,197,0.0,0.0,85,0.00,,,0.00,Wunderground v.1.15,2013-01-24 06:00:00,
2013-01-24 01:10:00,1.9,-1.3,28.92,SSW,197,0.0,0.0,86,0.00,,,0.00,Wunderground v.1.15,2013-01-24 06:10:00,
2013-01-24 01:15:00,1.8,-1.4,28.92,SSW,197,0.0,0.0,86,0.00,,,0.00,Wunderground v.1.15,2013-01-24 06:15:00,
2013-01-24 01:20:00,1.7,-1.5,28.92,SSW,197,0.0,0.0,86,0.00,,,0.00,Wunderground v.1.15,2013-01-24 06:20:00,
2013-01-24 01:30:00,2.0,-1.2,28.92,SSW,197,0.0,0.0,86,0.00,,,0.00,Wunderground v.1.15,2013-01-24 06:30:00,
2013-01-24 01:35:00,2.0,-1.0,28.92,SSW,197,0.0,0.0,87,0.00,,,0.00,Wunderground v.1.15,2013-01-24 06:35:00,
2013-01-24 01:40:00,1.9,-1.1,28.92,SSW,197,0.0,0.0,87,0.00,,,0.00,Wunderground v.1.15,2013-01-24 06:40:00,
2013-01-24 01:45:00,2.0,-1.0,28.92,SSW,197,0.0,0.0,87,0.00,,,0.00,Wunderground v.1.15,2013-01-24 06:45:00,
2013-01-24 01:50:00,2.1,-0.9,28.92,SSW,197,0.0,0.0,87,0.00,,,0.00,Wunderground v.1.15,2013-01-24 06:50:00,
2013-01-24 02:00:00,2.4,-0.6,28.92,SSW,197,0.0,0.0,87,0.00,,,0.00,Wunderground v.1.15,2013-01-24 07:00:00,
2013-01-24 02:10:00,2.8,-0.2,28.92,SSW,197,0.0,0.0,87,0.00,,,0.00,Wunderground v.1.15,2013-01-24 07:10:00,
2013-01-24 02:15:00,2.7,-0.3,28.92,SSW,197,0.0,0.0,87,0.00,,,0.00,Wunderground v.1.15,2013-01-24 07:15:00,
2013-01-24 02:20:00,2.8,-0.2,28.92,SSW,197,0.0,0.0,87,0.00,,,0.00,Wunderground v.1.15,2013-01-24 07:20:00,
2013-01-24 02:25:00,2.9,-0.1,28.92,SSW,197,0.0,0.0,87,0.00,,,0.00,Wunderground v.1.15,2013-01-24 07:25:00,
2013-01-24 02:30:00,3.0,0.0,28.92,SSW,197,0.0,0.0,87,0.00,,,0.00,Wunderground v.1.15,2013-01-24 07:30:00,
2013-01-24 02:35:00,3.0,0.0,28.92,SSW,197,0.0,0.0,87,0.00,,,0.00,Wunderground v.1.15,2013-01-24 07:35:00,
2013-01-24 02:40:00,3.0,0.0,28.92,SSW,197,0.0,0.0,87,0.00,,,0.00,Wunderground v.1.15,2013-01-24 07:40:00,
2013-01-24 02:45:00,2.9,-0.1,28.92,SSW,197,0.0,0.0,87,0.00,,,0.00,Wunderground v.1.15,2013-01-24 07:45:00,
2013-01-24 02:50:00,2.8,-0.2,28.92,SSW,197,0.0,0.0,87,0.00,,,0.00,Wunderground v.1.15,2013-01-24 07:50:00,
2013-01-24 02:55:00,2.7,-0.3,28.92,SSW,197,0.0,0.0,87,0.00,,,0.00,Wunderground v.1.15,2013-01-24 07:55:00,
2013-01-24 03:00:00,2.2,-0.8,28.92,SSW,197,0.0,0.0,87,0.00,,,0.00,Wunderground v.1.15,2013-01-24 08:00:00,
2013-01-24 03:10:00,2.0,-1.0,28.92,SSW,197,0.0,0.0,87,0.00,,,0.00,Wunderground v.1.15,2013-01-24 08:10:00,
2013-01-24 03:15:00,1.9,-1.1,28.92,SSW,197,0.0,2.0,87,0.00,,,0.00,Wunderground v.1.15,2013-01-24 08:15:00,
2013-01-24 03:25:00,1.5,-1.5,28.92,SSW,197,1.0,1.0,87,0.00,,,0.00,Wunderground v.1.15,2013-01-24 08:25:00,
2013-01-24 03:30:00,1.5,-1.5,28.92,SSW,197,0.0,0.0,87,0.00,,,0.00,Wunderground v.1.15,2013-01-24 08:30:00,
2013-01-24 03:40:00,1.3,-1.7,28.92,SSW,197,0.0,0.0,87,0.00,,,0.00,Wunderground v.1.15,2013-01-24 08:40:00,
2013-01-24 03:45:00,1.2,-1.8,28.92,SSW,197,0.0,1.0,87,0.00,,,0.00,Wunderground v.1.15,2013-01-24 08:45:00,
2013-01-24 03:50:00,1.2,-1.8,28.92,SSW,197,1.0,1.0,87,0.00,,,0.00,Wunderground v.1.15,2013-01-24 08:50:00,
2013-01-24 03:55:00,1.1,-1.9,28.92,SSW,197,1.0,1.0,87,0.00,,,0.00,Wunderground v.1.15,2013-01-24 08:55:00,
2013-01-24 04:00:00,0.8,-2.2,28.92,SSW,197,0.0,3.0,87,0.00,,,0.00,Wunderground v.1.15,2013-01-24 09:00:00,
2013-01-24 04:10:00,0.4,-2.6,28.92,SSW,197,0.0,3.0,87,0.00,,,0.00,Wunderground v.1.15,2013-01-24 09:10:00,
2013-01-24 04:15:00,0.8,-2.2,28.92,SSW,197,0.0,3.0,87,0.00,,,0.00,Wunderground v.1.15,2013-01-24 09:15:00,
2013-01-24 04:20:00,0.8,-2.2,28.92,SSW,197,0.0,3.0,87,0.00,,,0.00,Wunderground v.1.15,2013-01-24 09:20:00,
2013-01-24 04:25:00,0.6,-2.4,28.92,SSW,197,0.0,3.0,87,0.00,,,0.00,Wunderground v.1.15,2013-01-24 09:25:00,
2013-01-24 04:30:00,0.2,-2.8,28.92,SSW,197,1.0,1.0,87,0.00,,,0.00,Wunderground v.1.15,2013-01-24 09:30:00,
2013-01-24 04:35:00,0.2,-2.8,28.92,SSW,197,0.0,3.0,87,0.00,,,0.00,Wunderground v.1.15,2013-01-24 09:35:00,
2013-01-24 04:45:00,0.1,-2.9,28.92,SSW,197,0.0,3.0,87,0.00,,,0.00,Wunderground v.1.15,2013-01-24 09:45:00,
2013-01-24 04:50:00,-0.1,-3.0,28.92,SSW,197,0.0,3.0,87,0.00,,,0.00,Wunderground v.1.15,2013-01-24 09:50:00,
2013-01-24 05:00:00,-0.3,-3.2,28.92,SSW,197,1.0,2.0,87,0.00,,,0.00,Wunderground v.1.15,2013-01-24 10:00:00,
2013-01-24 05:09:00,-0.8,-3.7,28.92,SSW,197,1.0,1.0,87,0.00,,,0.00,Wunderground v.1.15,2013-01-24 10:09:00,
2013-01-24 05:14:00,-1.0,-3.9,28.92,SSW,197,0.0,2.0,87,0.00,,,0.00,Wunderground v.1.15,2013-01-24 10:14:00,
2013-01-24 05:20:00,-1.2,-4.1,28.92,SSW,197,0.0,2.0,87,0.00,,,0.00,Wunderground v.1.15,2013-01-24 10:20:00,
2013-01-24 05:25:00,-1.7,-4.9,28.92,SSW,197,1.0,2.0,86,0.00,,,0.00,Wunderground v.1.15,2013-01-24 10:25:00,
2013-01-24 05:30:00,-2.0,-5.2,28.92,SSW,197,1.0,2.0,86,0.00,,,0.00,Wunderground v.1.15,2013-01-24 10:30:00,
2013-01-24 05:35:00,-2.2,-5.4,28.92,SSW,197,1.0,2.0,86,0.00,,,0.00,Wunderground v.1.15,2013-01-24 10:35:00,
2013-01-24 05:45:00,-2.2,-5.1,28.92,SSW,197,1.0,2.0,87,0.00,,,0.00,Wunderground v.1.15,2013-01-24 10:45:00,
2013-01-24 05:50:00,-2.2,-5.1,28.92,SSW,197,1.0,2.0,87,0.00,,,0.00,Wunderground v.1.15,2013-01-24 10:50:00,
2013-01-24 05:55:00,-2.2,-5.1,28.92,SSW,197,0.0,2.0,87,0.00,,,0.00,Wunderground v.1.15,2013-01-24 10:55:00,
2013-01-24 06:00:00,-2.1,-5.0,28.92,SSW,197,0.0,2.0,87,0.00,,,0.00,Wunderground v.1.15,2013-01-24 11:00:00,
2013-01-24 06:09:00,-1.8,-4.7,28.92,SSW,197,0.0,2.0,87,0.00,,,0.00,Wunderground v.1.15,2013-01-24 11:09:00,
2013-01-24 06:15:00,-1.7,-4.6,28.92,SSW,197,0.0,2.0,87,0.00,,,0.00,Wunderground v.1.15,2013-01-24 11:15:00,
2013-01-24 06:20:00,-1.6,-4.5,28.92,SSW,197,0.0,2.0,87,0.00,,,0.00,Wunderground v.1.15,2013-01-24 11:20:00,
2013-01-24 06:25:00,-1.6,-4.5,28.92,SSW,197,0.0,2.0,87,0.00,,,0.00,Wunderground v.1.15,2013-01-24 11:25:00,
2013-01-24 06:30:00,-1.6,-4.5,28.92,SSW,197,0.0,2.0,87,0.00,,,0.00,Wunderground v.1.15,2013-01-24 11:30:00,
2013-01-24 06:35:00,-1.5,-4.4,28.92,SSW,197,1.0,2.0,87,0.00,,,0.00,Wunderground v.1.15,2013-01-24 11:35:00,
2013-01-24 06:44:00,-1.3,-4.2,28.92,SSW,197,1.0,2.0,87,0.00,,,0.00,Wunderground v.1.15,2013-01-24 11:44:00,
2013-01-24 06:50:00,-1.0,-3.7,28.92,SSW,197,0.0,2.0,88,0.00,,,0.00,Wunderground v.1.15,2013-01-24 11:50:00,
2013-01-24 06:55:00,-0.8,-3.5,28.92,SSW,197,0.0,2.0,88,0.00,,,0.00,Wunderground v.1.15,2013-01-24 11:55:00,
2013-01-24 07:00:00,-0.8,-3.5,28.92,SSW,197,0.0,2.0,88,0.00,,,0.00,Wunderground v.1.15,2013-01-24 12:00:00,
2013-01-24 07:10:00,-1.1,-4.0,28.92,SSW,197,0.0,2.0,87,0.00,,,0.00,Wunderground v.1.15,2013-01-24 12:10:00,
2013-01-24 07:15:00,-0.9,-3.8,28.92,SSW,197,0.0,2.0,87,0.00,,,0.00,Wunderground v.1.15,2013-01-24 12:15:00,
2013-01-24 07:20:00,-0.7,-3.4,28.92,SSW,197,0.0,2.0,88,0.00,,,0.00,Wunderground v.1.15,2013-01-24 12:20:00,
2013-01-24 07:25:00,-0.7,-3.4,28.92,SSW,197,0.0,2.0,88,0.00,,,0.00,Wunderground v.1.15,2013-01-24 12:25:00,
2013-01-24 07:30:00,-0.6,-3.3,28.92,SSW,197,0.0,2.0,88,0.00,,,0.00,Wunderground v.1.15,2013-01-24 12:30:00,
2013-01-24 07:35:00,0.7,-1.8,28.92,SSW,197,0.0,2.0,89,0.00,,,0.00,Wunderground v.1.15,2013-01-24 12:35:00,
2013-01-24 07:40:00,1.6,-0.9,28.92,SSW,197,0.0,2.0,89,0.00,,,0.00,Wunderground v.1.15,2013-01-24 12:40:00,
2013-01-24 07:45:00,2.0,-0.5,28.92,SSW,197,0.0,2.0,89,0.00,,,0.00,Wunderground v.1.15,2013-01-24 12:45:00,
2013-01-24 07:55:00,3.4,0.9,28.92,SSW,197,0.0,2.0,89,0.00,,,0.00,Wunderground v.1.15,2013-01-24 12:55:00,
2013-01-24 08:00:00,4.7,2.4,28.92,SSW,197,0.0,1.0,90,0.00,,,0.00,Wunderground v.1.15,2013-01-24 13:00:00,
2013-01-24 08:10:00,6.4,4.1,28.92,SSW,197,0.0,2.0,90,0.00,,,0.00,Wunderground v.1.15,2013-01-24 13:10:00,
2013-01-24 08:15:00,6.8,4.5,28.92,SSW,197,0.0,2.0,90,0.00,,,0.00,Wunderground v.1.15,2013-01-24 13:15:00,
2013-01-24 08:20:00,7.1,4.8,28.92,SSW,194,1.0,2.0,90,0.00,,,0.00,Wunderground v.1.15,2013-01-24 13:20:00,
2013-01-24 08:30:00,7.1,4.8,28.92,South,183,3.0,4.0,90,0.00,,,0.00,Wunderground v.1.15,2013-01-24 13:30:00,
2013-01-24 08:35:00,6.8,4.2,28.92,South,182,4.0,4.0,89,0.00,,,0.00,Wunderground v.1.15,2013-01-24 13:35:00,
2013-01-24 08:40:00,6.7,4.1,28.92,South,182,3.0,3.0,89,0.00,,,0.00,Wunderground v.1.15,2013-01-24 13:40:00,
2013-01-24 08:45:00,6.5,3.9,28.92,South,182,3.0,3.0,89,0.00,,,0.00,Wunderground v.1.15,2013-01-24 13:45:00,
2013-01-24 08:50:00,6.2,3.7,28.92,South,182,2.0,2.0,89,0.00,,,0.00,Wunderground v.1.15,2013-01-24 13:50:00,
2013-01-24 08:55:00,5.8,3.3,28.92,South,182,1.0,3.0,89,0.00,,,0.00,Wunderground v.1.15,2013-01-24 13:55:00,
2013-01-24 09:00:00,6.0,3.5,28.92,South,182,1.0,6.0,89,0.00,,,0.00,Wunderground v.1.15,2013-01-24 14:00:00,
2013-01-24 09:10:00,7.1,4.8,28.92,South,177,1.0,1.0,90,0.00,,,0.00,Wunderground v.1.15,2013-01-24 14:10:00,
2013-01-24 09:15:00,7.7,5.4,28.92,South,177,0.0,6.0,90,0.00,,,0.00,Wunderground v.1.15,2013-01-24 14:15:00,
2013-01-24 09:20:00,8.2,5.9,28.92,South,177,0.0,6.0,90,0.00,,,0.00,Wunderground v.1.15,2013-01-24 14:20:00,
2013-01-24 09:25:00,8.6,6.3,28.92,South,177,0.0,6.0,90,0.00,,,0.00,Wunderground v.1.15,2013-01-24 14:25:00,
2013-01-24 09:30:00,8.8,6.5,28.92,South,177,0.0,6.0,90,0.00,,,0.00,Wunderground v.1.15,2013-01-24 14:30:00,
2013-01-24 09:35:00,8.6,6.0,28.92,South,177,1.0,6.0,89,0.00,,,0.00,Wunderground v.1.15,2013-01-24 14:35:00,
2013-01-24 09:40:00,8.9,6.3,28.92,SSE,162,1.0,6.0,89,0.00,,,0.00,Wunderground v.1.15,2013-01-24 14:40:00,
2013-01-24 09:45:00,9.4,6.8,28.92,SSE,149,1.0,6.0,89,0.00,,,0.00,Wunderground v.1.15,2013-01-24 14:45:00,
2013-01-24 09:50:00,9.4,6.6,28.92,SE,135,3.0,6.0,88,0.00,,,0.00,Wunderground v.1.15,2013-01-24 14:50:00,
2013-01-24 09:55:00,9.6,6.5,28.92,SSE,161,3.0,11.0,87,0.00,,,0.00,Wunderground v.1.15,2013-01-24 14:55:00,
2013-01-24 10:00:00,10.1,6.7,28.92,SE,144,3.0,3.0,86,0.00,,,0.00,Wunderground v.1.15,2013-01-24 15:00:00,
2013-01-24 10:10:00,9.6,6.0,28.92,ESE,122,3.0,11.0,85,0.00,,,0.00,Wunderground v.1.15,2013-01-24 15:10:00,
2013-01-24 10:15:00,8.9,5.3,28.92,SE,128,3.0,11.0,85,0.00,,,0.00,Wunderground v.1.15,2013-01-24 15:15:00,
2013-01-24 10:20:00,9.0,5.4,28.92,SSE,149,3.0,3.0,85,0.00,,,0.00,Wunderground v.1.15,2013-01-24 15:20:00,
2013-01-24 10:25:00,9.1,5.5,28.92,SE,139,3.0,11.0,85,0.00,,,0.00,Wunderground v.1.15,2013-01-24 15:25:00,
2013-01-24 10:35:00,9.2,5.1,28.92,SE,144,4.0,11.0,83,0.00,,,0.00,Wunderground v.1.15,2013-01-24 15:35:00,
2013-01-24 10:40:00,8.9,4.8,28.92,SE,129,5.0,11.0,83,0.00,,,0.00,Wunderground v.1.15,2013-01-24 15:40:00,
2013-01-24 10:45:00,8.7,4.6,28.92,SE,139,4.0,11.0,83,0.00,,,0.00,Wunderground v.1.15,2013-01-24 15:45:00,
2013-01-24 10:50:00,8.7,4.3,28.92,SSE,164,4.0,11.0,82,0.00,,,0.00,Wunderground v.1.15,2013-01-24 15:50:00,
2013-01-24 10:55:00,8.6,4.2,28.92,SE,134,4.0,11.0,82,0.00,,,0.00,Wunderground v.1.15,2013-01-24 15:55:00,
2013-01-24 11:00:00,8.7,4.3,28.92,SSE,159,4.0,9.0,82,0.00,,,0.00,Wunderground v.1.15,2013-01-24 16:00:00,
2013-01-24 11:10:00,8.6,4.0,28.92,SE,126,4.0,4.0,81,0.00,,,0.00,Wunderground v.1.15,2013-01-24 16:10:00,
2013-01-24 11:15:00,9.0,4.6,28.92,ESE,122,3.0,9.0,82,0.00,,,0.00,Wunderground v.1.15,2013-01-24 16:15:00,
2013-01-24 11:20:00,9.2,4.8,28.92,ESE,113,3.0,9.0,82,0.00,,,0.00,Wunderground v.1.15,2013-01-24 16:20:00,
2013-01-24 11:25:00,9.2,4.6,28.92,ESE,114,4.0,9.0,81,0.00,,,0.00,Wunderground v.1.15,2013-01-24 16:25:00,
2013-01-24 11:30:00,9.1,4.5,28.92,East,92,4.0,9.0,81,0.00,,,0.00,Wunderground v.1.15,2013-01-24 16:30:00,
2013-01-24 11:40:00,8.2,3.6,28.92,ESE,116,5.0,9.0,81,0.00,,,0.00,Wunderground v.1.15,2013-01-24 16:40:00,
2013-01-24 11:45:00,8.6,4.0,28.92,ESE,112,4.0,9.0,81,0.00,,,0.00,Wunderground v.1.15,2013-01-24 16:45:00,
2013-01-24 11:50:00,9.0,4.6,28.92,SE,134,3.0,3.0,82,0.00,,,0.00,Wunderground v.1.15,2013-01-24 16:50:00,
2013-01-24 11:55:00,9.0,4.4,28.92,SE,139,3.0,9.0,81,0.00,,,0.00,Wunderground v.1.15,2013-01-24 16:55:00,
2013-01-24 12:00:00,9.2,4.6,28.92,ESE,109,4.0,4.0,81,0.00,,,0.00,Wunderground v.1.15,2013-01-24 17:00:00,
2013-01-24 12:10:00,9.2,4.6,28.92,East,95,5.0,5.0,81,0.00,,,0.00,Wunderground v.1.15,2013-01-24 17:10:00,
2013-01-24 12:15:00,9.5,5.1,28.92,ESE,105,6.0,6.0,82,0.00,,,0.00,Wunderground v.1.15,2013-01-24 17:15:00,
2013-01-24 12:20:00,9.2,4.6,28.92,ESE,122,6.0,9.0,81,0.00,,,0.00,Wunderground v.1.15,2013-01-24 17:20:00,
2013-01-24 12:25:00,8.8,4.2,28.92,SE,125,7.0,9.0,81,0.00,,,0.00,Wunderground v.1.15,2013-01-24 17:25:00,
2013-01-24 12:30:00,8.8,4.4,28.92,SE,126,6.0,9.0,82,0.00,,,0.00,Wunderground v.1.15,2013-01-24 17:30:00,
2013-01-24 12:35:00,8.7,4.3,28.92,East,84,6.0,9.0,82,0.00,,,0.00,Wunderground v.1.15,2013-01-24 17:35:00,
2013-01-24 12:45:00,8.5,4.1,28.92,East,88,7.0,9.0,82,0.00,,,0.00,Wunderground v.1.15,2013-01-24 17:45:00,
2013-01-24 12:50:00,8.7,4.6,28.92,SE,127,7.0,7.0,83,0.00,,,0.00,Wunderground v.1.15,2013-01-24 17:50:00,
2013-01-24 12:55:00,8.8,4.7,28.92,ESE,120,7.0,8.0,83,0.00,,,0.00,Wunderground v.1.15,2013-01-24 17:55:00,
2013-01-24 13:00:00,8.9,4.8,28.92,East,97,6.0,6.0,83,0.00,,,0.00,Wunderground v.1.15,2013-01-24 18:00:00,
2013-01-24 13:10:00,8.9,4.8,28.92,SE,128,7.0,7.0,83,0.00,,,0.00,Wunderground v.1.15,2013-01-24 18:10:00,
2013-01-24 13:15:00,9.0,4.9,28.92,ESE,109,7.0,8.0,83,0.00,,,0.00,Wunderground v.1.15,2013-01-24 18:15:00,
2013-01-24 13:20:00,9.1,5.0,28.92,ESE,113,6.0,6.0,83,0.00,,,0.00,Wunderground v.1.15,2013-01-24 18:20:00,
2013-01-24 13:25:00,9.2,5.1,28.92,SE,131,5.0,14.0,83,0.00,,,0.00,Wunderground v.1.15,2013-01-24 18:25:00,
2013-01-24 13:30:00,9.5,5.6,28.92,ENE,67,5.0,14.0,84,0.00,,,0.00,Wunderground v.1.15,2013-01-24 18:30:00,
2013-01-24 13:40:00,9.9,6.3,28.92,East,101,4.0,14.0,85,0.00,,,0.00,Wunderground v.1.15,2013-01-24 18:40:00,
2013-01-24 13:45:00,10.0,6.4,28.92,ESE,117,4.0,14.0,85,0.00,,,0.00,Wunderground v.1.15,2013-01-24 18:45:00,
2013-01-24 13:50:00,10.8,7.4,28.92,South,189,5.0,14.0,86,0.00,,,0.00,Wunderground v.1.15,2013-01-24 18:50:00,
2013-01-24 14:00:00,11.5,7.6,28.92,East,86,5.0,15.0,84,0.00,,,0.00,Wunderground v.1.15,2013-01-24 19:00:00,
2013-01-24 14:10:00,10.8,5.8,28.92,East,99,6.0,15.0,80,0.00,,,0.00,Wunderground v.1.15,2013-01-24 19:10:00,
2013-01-24 14:20:00,10.9,6.2,28.92,East,96,7.0,7.0,81,0.00,,,0.00,Wunderground v.1.15,2013-01-24 19:20:00,
2013-01-24 14:25:00,11.3,6.6,28.92,ESE,117,5.0,9.0,81,0.00,,,0.00,Wunderground v.1.15,2013-01-24 19:25:00,
2013-01-24 14:30:00,11.6,6.6,28.92,East,99,5.0,5.0,80,0.00,,,0.00,Wunderground v.1.15,2013-01-24 19:30:00,
2013-01-24 14:35:00,12.1,7.1,28.92,ESE,103,5.0,6.0,80,0.00,,,0.00,Wunderground v.1.15,2013-01-24 19:35:00,
2013-01-24 14:40:00,12.5,7.8,28.92,East,79,4.0,4.0,81,0.00,,,0.00,Wunderground v.1.15,2013-01-24 19:40:00,
2013-01-24 14:50:00,12.6,7.3,28.92,East,97,6.0,15.0,79,0.00,,,0.00,Wunderground v.1.15,2013-01-24 19:50:00,
2013-01-24 14:55:00,12.7,7.1,28.92,ESE,113,6.0,15.0,78,0.00,,,0.00,Wunderground v.1.15,2013-01-24 19:55:00,
2013-01-24 15:00:00,13.0,7.4,28.92,ESE,119,6.0,15.0,78,0.00,,,0.00,Wunderground v.1.15,2013-01-24 20:00:00,
2013-01-24 15:10:00,12.0,6.7,28.92,ESE,111,6.0,15.0,79,0.00,,,0.00,Wunderground v.1.15,2013-01-24 20:10:00,
2013-01-24 15:15:00,11.5,6.5,28.92,SSE,149,6.0,15.0,80,0.00,,,0.00,Wunderground v.1.15,2013-01-24 20:15:00,
2013-01-24 15:25:00,11.7,7.0,28.92,ESE,119,6.0,15.0,81,0.00,,,0.00,Wunderground v.1.15,2013-01-24 20:25:00,
2013-01-24 15:30:00,11.6,6.6,28.92,South,173,6.0,15.0,80,0.00,,,0.00,Wunderground v.1.15,2013-01-24 20:30:00,
2013-01-24 15:35:00,11.9,6.9,28.92,SE,130,6.0,15.0,80,0.00,,,0.00,Wunderground v.1.15,2013-01-24 20:35:00,
2013-01-24 15:40:00,12.2,6.9,28.92,East,98,6.0,15.0,79,0.00,,,0.00,Wunderground v.1.15,2013-01-24 20:40:00,
2013-01-24 15:45:00,12.5,7.2,28.92,East,81,6.0,15.0,79,0.00,,,0.00,Wunderground v.1.15,2013-01-24 20:45:00,
2013-01-24 15:55:00,12.7,6.9,28.92,ESE,111,6.0,15.0,77,0.00,,,0.00,Wunderground v.1.15,2013-01-24 20:55:00,
2013-01-24 16:00:00,12.9,7.0,28.92,ESE,113,5.0,5.0,77,0.00,,,0.00,Wunderground v.1.15,2013-01-24 21:00:00,
2013-01-24 16:10:00,11.9,5.2,28.92,ENE,72,7.0,7.0,74,0.00,,,0.00,Wunderground v.1.15,2013-01-24 21:10:00,
2013-01-24 16:20:00,11.2,4.2,28.92,ESE,105,6.0,14.0,73,0.00,,,0.00,Wunderground v.1.15,2013-01-24 21:20:00,
2013-01-24 16:30:00,10.8,3.5,28.92,ESE,119,7.0,7.0,72,0.00,,,0.00,Wunderground v.1.15,2013-01-24 21:30:00,
2013-01-24 16:35:00,10.7,3.1,28.92,ENE,68,7.0,14.0,71,0.00,,,0.00,Wunderground v.1.15,2013-01-24 21:35:00,
2013-01-24 16:40:00,10.7,3.1,28.92,SE,139,6.0,14.0,71,0.00,,,0.00,Wunderground v.1.15,2013-01-24 21:40:00,
2013-01-24 16:45:00,10.6,3.0,28.92,SE,129,6.0,14.0,71,0.00,,,0.00,Wunderground v.1.15,2013-01-24 21:45:00,
2013-01-24 16:50:00,10.4,3.2,28.92,SE,132,5.0,14.0,72,0.00,,,0.00,Wunderground v.1.15,2013-01-24 21:50:00,
2013-01-24 16:55:00,10.2,3.3,28.92,East,95,5.0,14.0,73,0.00,,,0.00,Wunderground v.1.15,2013-01-24 21:55:00,
2013-01-24 17:00:00,10.1,3.2,28.92,NE,43,4.0,4.0,73,0.00,,,0.00,Wunderground v.1.15,2013-01-24 22:00:00,
2013-01-24 17:10:00,10.1,3.8,28.92,ESE,105,4.0,16.0,75,0.00,,,0.00,Wunderground v.1.15,2013-01-24 22:10:00,
2013-01-24 17:15:00,10.1,4.0,28.92,ESE,119,5.0,16.0,76,0.00,,,0.00,Wunderground v.1.15,2013-01-24 22:15:00,
2013-01-24 17:20:00,10.1,4.0,28.92,ESE,123,4.0,4.0,76,0.00,,,0.00,Wunderground v.1.15,2013-01-24 22:20:00,
2013-01-24 17:25:00,10.0,3.9,28.92,SE,133,4.0,6.0,76,0.00,,,0.00,Wunderground v.1.15,2013-01-24 22:25:00,
2013-01-24 17:35:00,9.7,3.9,28.92,SE,139,5.0,16.0,77,0.00,,,0.00,Wunderground v.1.15,2013-01-24 22:35:00,
2013-01-24 17:45:00,9.5,3.7,28.92,ESE,113,5.0,16.0,77,0.00,,,0.00,Wunderground v.1.15,2013-01-24 22:45:00,
2013-01-24 17:50:00,9.4,3.6,28.92,East,101,4.0,4.0,77,0.00,,,0.00,Wunderground v.1.15,2013-01-24 22:50:00,
2013-01-24 17:55:00,9.4,3.9,28.92,SE,139,4.0,7.0,78,0.00,,,0.00,Wunderground v.1.15,2013-01-24 22:55:00,
2013-01-24 18:00:00,9.5,4.3,28.92,SE,139,5.0,14.0,79,0.00,,,0.00,Wunderground v.1.15,2013-01-24 23:00:00,
2013-01-24 18:10:00,9.5,4.3,28.92,ESE,105,4.0,4.0,79,0.00,,,0.00,Wunderground v.1.15,2013-01-24 23:10:00,
2013-01-24 18:15:00,9.5,4.3,28.92,ESE,115,3.0,14.0,79,0.00,,,0.00,Wunderground v.1.15,2013-01-24 23:15:00,
2013-01-24 18:20:00,9.6,4.7,28.92,East,98,3.0,14.0,80,0.00,,,0.00,Wunderground v.1.15,2013-01-24 23:20:00,
2013-01-24 18:25:00,9.5,4.6,28.92,ESE,107,4.0,14.0,80,0.00,,,0.00,Wunderground v.1.15,2013-01-24 23:25:00,
2013-01-24 18:30:00,9.4,4.5,28.92,ENE,62,5.0,5.0,80,0.00,,,0.00,Wunderground v.1.15,2013-01-24 23:30:00,
2013-01-24 18:40:00,9.2,4.3,28.92,East,94,5.0,14.0,80,0.00,,,0.00,Wunderground v.1.15,2013-01-24 23:40:00,
2013-01-24 18:45:00,9.2,4.3,28.92,ENE,63,5.0,14.0,80,0.00,,,0.00,Wunderground v.1.15,2013-01-24 23:45:00,
2013-01-24 18:50:00,8.9,4.0,28.92,ESE,116,6.0,14.0,80,0.00,,,0.00,Wunderground v.1.15,2013-01-24 23:50:00,
2013-01-24 18:55:00,8.9,4.0,28.92,East,101,6.0,14.0,80,0.00,,,0.00,Wunderground v.1.15,2013-01-24 23:55:00,
2013-01-24 19:00:00,8.8,3.9,28.92,ESE,102,5.0,5.0,80,0.00,,,0.00,Wunderground v.1.15,2013-01-25 00:00:00,
2013-01-24 19:10:00,8.9,4.0,28.92,SSW,206,4.0,4.0,80,0.00,,,0.00,Wunderground v.1.15,2013-01-25 00:10:00,
2013-01-24 19:15:00,9.0,4.1,28.92,NNE,16,5.0,5.0,80,0.00,,,0.00,Wunderground v.1.15,2013-01-25 00:15:00,
2013-01-24 19:20:00,8.9,4.0,28.92,SSE,154,6.0,6.0,80,0.00,,,0.00,Wunderground v.1.15,2013-01-25 00:20:00,
2013-01-24 19:30:00,8.9,4.0,28.92,ESE,122,6.0,6.0,80,0.00,,,0.00,Wunderground v.1.15,2013-01-25 00:30:00,
2013-01-24 19:35:00,8.9,4.3,28.92,SE,126,7.0,7.0,81,0.00,,,0.00,Wunderground v.1.15,2013-01-25 00:35:00,
2013-01-24 19:40:00,8.9,4.3,28.92,SE,139,6.0,6.0,81,0.00,,,0.00,Wunderground v.1.15,2013-01-25 00:40:00,
2013-01-24 19:45:00,9.0,4.4,28.92,East,85,6.0,8.0,81,0.00,,,0.00,Wunderground v.1.15,2013-01-25 00:45:00,
2013-01-24 19:50:00,9.0,4.6,28.92,South,172,5.0,16.0,82,0.00,,,0.00,Wunderground v.1.15,2013-01-25 00:50:00,
2013-01-24 19:55:00,9.0,4.6,28.92,East,90,5.0,16.0,82,0.00,,,0.00,Wunderground v.1.15,2013-01-25 00:55:00,
2013-01-24 20:05:00,9.0,4.6,28.92,SSE,157,7.0,15.0,82,0.00,,,0.00,Wunderground v.1.15,2013-01-25 01:05:00,
2013-01-24 20:10:00,9.0,4.9,28.92,ESE,107,6.0,15.0,83,0.00,,,0.00,Wunderground v.1.15,2013-01-25 01:10:00,
2013-01-24 20:20:00,9.0,4.9,28.92,East,85,7.0,7.0,83,0.00,,,0.00,Wunderground v.1.15,2013-01-25 01:20:00,
2013-01-24 20:25:00,9.0,4.9,28.92,SSE,159,6.0,15.0,83,0.00,,,0.00,Wunderground v.1.15,2013-01-25 01:25:00,
2013-01-24 20:30:00,9.1,5.0,28.92,NNW,346,6.0,6.0,83,0.00,,,0.00,Wunderground v.1.15,2013-01-25 01:30:00,
2013-01-24 20:35:00,9.1,5.0,28.92,SE,134,5.0,15.0,83,0.00,,,0.00,Wunderground v.1.15,2013-01-25 01:35:00,
2013-01-24 20:40:00,9.1,5.0,28.92,East,100,6.0,6.0,83,0.00,,,0.00,Wunderground v.1.15,2013-01-25 01:40:00,
2013-01-24 20:45:00,9.2,5.1,28.92,SE,129,6.0,15.0,83,0.00,,,0.00,Wunderground v.1.15,2013-01-25 01:45:00,
2013-01-24 20:55:00,9.2,5.1,28.92,SE,124,4.0,15.0,83,0.00,,,0.00,Wunderground v.1.15,2013-01-25 01:55:00,
2013-01-24 21:00:00,9.2,5.1,28.92,East,90,5.0,15.0,83,0.00,,,0.00,Wunderground v.1.15,2013-01-25 02:00:00,
2013-01-24 21:10:00,9.1,5.0,28.92,East,82,4.0,4.0,83,0.00,,,0.00,Wunderground v.1.15,2013-01-25 02:10:00,
2013-01-24 21:15:00,9.2,5.1,28.92,SE,126,4.0,15.0,83,0.00,,,0.00,Wunderground v.1.15,2013-01-25 02:15:00,
2013-01-24 21:25:00,9.3,5.2,28.92,ESE,110,4.0,15.0,83,0.00,,,0.00,Wunderground v.1.15,2013-01-25 02:25:00,
2013-01-24 21:30:00,9.3,5.4,28.92,ENE,76,4.0,15.0,84,0.00,,,0.00,Wunderground v.1.15,2013-01-25 02:30:00,
2013-01-24 21:35:00,9.5,5.6,28.92,ESE,116,3.0,15.0,84,0.00,,,0.00,Wunderground v.1.15,2013-01-25 02:35:00,
2013-01-24 21:40:00,9.5,5.6,28.92,ESE,113,3.0,15.0,84,0.00,,,0.00,Wunderground v.1.15,2013-01-25 02:40:00,
2013-01-24 21:45:00,9.6,5.7,28.92,ESE,107,3.0,15.0,84,0.00,,,0.00,Wunderground v.1.15,2013-01-25 02:45:00,
2013-01-24 21:50:00,9.7,5.8,28.92,East,97,3.0,3.0,84,0.00,,,0.00,Wunderground v.1.15,2013-01-25 02:50:00,
2013-01-24 22:00:00,9.9,6.0,28.92,ESE,114,2.0,10.0,84,0.00,,,0.00,Wunderground v.1.15,2013-01-25 03:00:00,
2013-01-24 22:10:00,10.0,6.1,28.92,ESE,109,4.0,4.0,84,0.00,,,0.00,Wunderground v.1.15,2013-01-25 03:10:00,
2013-01-24 22:15:00,10.1,6.2,28.92,ESE,107,3.0,10.0,84,0.00,,,0.00,Wunderground v.1.15,2013-01-25 03:15:00,
2013-01-24 22:20:00,10.1,6.5,28.92,East,98,3.0,10.0,85,0.00,,,0.00,Wunderground v.1.15,2013-01-25 03:20:00,
2013-01-24 22:25:00,10.1,6.5,28.92,ENE,63,3.0,10.0,85,0.00,,,0.00,Wunderground v.1.15,2013-01-25 03:25:00,
2013-01-24 22:30:00,10.1,6.5,28.92,ENE,73,4.0,4.0,85,0.00,,,0.00,Wunderground v.1.15,2013-01-25 03:30:00,
2013-01-24 22:40:00,10.1,6.5,28.92,East,85,4.0,11.0,85,0.00,,,0.00,Wunderground v.1.15,2013-01-25 03:40:00,
2013-01-24 22:45:00,10.1,6.5,28.92,ESE,104,4.0,11.0,85,0.00,,,0.00,Wunderground v.1.15,2013-01-25 03:45:00,
2013-01-24 22:50:00,10.1,6.7,28.92,East,85,4.0,10.0,86,0.00,,,0.00,Wunderground v.1.15,2013-01-25 03:50:00,
2013-01-24 22:55:00,10.1,6.7,28.92,ESE,108,4.0,10.0,86,0.00,,,0.00,Wunderground v.1.15,2013-01-25 03:55:00,
2013-01-24 23:00:00,10.1,6.7,28.92,East,97,4.0,4.0,86,0.00,,,0.00,Wunderground v.1.15,2013-01-25 04:00:00,
2013-01-24 23:10:00,10.1,6.7,28.92,East,95,3.0,11.0,86,0.00,,,0.00,Wunderground v.1.15,2013-01-25 04:10:00,
2013-01-24 23:15:00,10.1,7.0,28.92,ESE,111,3.0,11.0,87,0.00,,,0.00,Wunderground v.1.15,2013-01-25 04:15:00,
2013-01-24 23:20:00,10.1,7.0,28.92,ESE,122,3.0,11.0,87,0.00,,,0.00,Wunderground v.1.15,2013-01-25 04:20:00,
2013-01-24 23:30:00,10.1,7.0,28.92,ESE,106,3.0,3.0,87,0.00,,,0.00,Wunderground v.1.15,2013-01-25 04:30:00,
2013-01-24 23:35:00,10.0,6.9,28.92,East,101,3.0,6.0,87,0.00,,,0.00,Wunderground v.1.15,2013-01-25 04:35:00,
2013-01-24 23:40:00,10.0,6.9,28.92,ESE,105,3.0,3.0,87,0.00,,,0.00,Wunderground v.1.15,2013-01-25 04:40:00,
2013-01-24 23:45:00,10.1,7.3,28.92,East,99,3.0,11.0,88,0.00,,,0.00,Wunderground v.1.15,2013-01-25 04:45:00,
2013-01-24 23:55:00,10.0,7.2,28.92,SE,128,3.0,11.0,88,0.00,,,0.00,Wunderground v.1.15,2013-01-25 04:55:00,